sensor_id;sensor_type;location;lat;lon;timestamp;P1;durP1;ratioP1;P2;durP2;ratioP2
12900;SDS011;6518;50.930;5.344;2023-03-01T00:02:01;9.77;;;7.77;;
12900;SDS011;6518;50.930;5.344;2023-03-01T00:04:27;10.20;;;7.27;;
12900;SDS011;6518;50.930;5.344;2023-03-01T00:06:54;10.67;;;8.47;;
12900;SDS011;6518;50.930;5.344;2023-03-01T00:09:21;11.43;;;8.70;;
12900;SDS011;6518;50.930;5.344;2023-03-01T00:11:48;15.13;;;10.00;;
12900;SDS011;6518;50.930;5.344;2023-03-01T00:14:16;15.30;;;10.13;;
12900;SDS011;6518;50.930;5.344;2023-03-01T00:16:43;13.30;;;8.50;;
12900;SDS011;6518;50.930;5.344;2023-03-01T00:19:13;9.77;;;7.70;;
12900;SDS011;6518;50.930;5.344;2023-03-01T00:21:41;9.00;;;7.07;;
12900;SDS011;6518;50.930;5.344;2023-03-01T00:24:08;9.77;;;7.73;;
12900;SDS011;6518;50.930;5.344;2023-03-01T00:26:35;9.73;;;7.53;;
12900;SDS011;6518;50.930;5.344;2023-03-01T00:29:02;9.07;;;7.40;;
12900;SDS011;6518;50.930;5.344;2023-03-01T00:31:31;9.60;;;7.33;;
12900;SDS011;6518;50.930;5.344;2023-03-01T00:33:59;11.07;;;7.67;;
12900;SDS011;6518;50.930;5.344;2023-03-01T00:36:28;11.40;;;7.67;;
12900;SDS011;6518;50.930;5.344;2023-03-01T00:38:56;10.00;;;7.33;;
12900;SDS011;6518;50.930;5.344;2023-03-01T00:41:24;11.83;;;8.10;;
12900;SDS011;6518;50.930;5.344;2023-03-01T00:43:51;10.13;;;7.50;;
12900;SDS011;6518;50.930;5.344;2023-03-01T00:46:19;10.47;;;7.53;;
12900;SDS011;6518;50.930;5.344;2023-03-01T00:48:48;12.70;;;7.67;;
12900;SDS011;6518;50.930;5.344;2023-03-01T00:51:16;9.53;;;7.80;;
12900;SDS011;6518;50.930;5.344;2023-03-01T00:53:45;8.80;;;7.13;;
12900;SDS011;6518;50.930;5.344;2023-03-01T00:56:12;8.80;;;7.57;;
12900;SDS011;6518;50.930;5.344;2023-03-01T00:58:40;10.40;;;7.80;;
12900;SDS011;6518;50.930;5.344;2023-03-01T01:01:08;11.13;;;7.70;;
12900;SDS011;6518;50.930;5.344;2023-03-01T01:03:43;9.17;;;7.10;;
12900;SDS011;6518;50.930;5.344;2023-03-01T01:06:17;11.07;;;7.93;;
12900;SDS011;6518;50.930;5.344;2023-03-01T01:08:46;10.03;;;7.53;;
12900;SDS011;6518;50.930;5.344;2023-03-01T01:11:13;9.67;;;7.73;;
12900;SDS011;6518;50.930;5.344;2023-03-01T01:13:41;10.53;;;7.53;;
12900;SDS011;6518;50.930;5.344;2023-03-01T01:16:09;9.73;;;7.30;;
12900;SDS011;6518;50.930;5.344;2023-03-01T01:18:37;9.57;;;7.63;;
12900;SDS011;6518;50.930;5.344;2023-03-01T01:21:05;10.87;;;7.67;;
12900;SDS011;6518;50.930;5.344;2023-03-01T01:23:35;9.57;;;7.53;;
12900;SDS011;6518;50.930;5.344;2023-03-01T01:26:03;9.23;;;7.53;;
12900;SDS011;6518;50.930;5.344;2023-03-01T01:28:31;10.27;;;7.43;;
12900;SDS011;6518;50.930;5.344;2023-03-01T01:30:58;12.30;;;7.70;;
12900;SDS011;6518;50.930;5.344;2023-03-01T01:33:24;13.43;;;7.87;;
12900;SDS011;6518;50.930;5.344;2023-03-01T01:35:52;9.33;;;7.40;;
12900;SDS011;6518;50.930;5.344;2023-03-01T01:38:19;10.20;;;8.07;;
12900;SDS011;6518;50.930;5.344;2023-03-01T01:40:48;11.53;;;8.37;;
12900;SDS011;6518;50.930;5.344;2023-03-01T01:43:19;9.23;;;7.47;;
12900;SDS011;6518;50.930;5.344;2023-03-01T01:45:49;8.53;;;7.27;;
12900;SDS011;6518;50.930;5.344;2023-03-01T01:48:17;10.40;;;8.10;;
12900;SDS011;6518;50.930;5.344;2023-03-01T01:50:49;9.23;;;7.30;;
12900;SDS011;6518;50.930;5.344;2023-03-01T01:53:21;10.80;;;8.33;;
12900;SDS011;6518;50.930;5.344;2023-03-01T01:55:53;9.20;;;7.20;;
12900;SDS011;6518;50.930;5.344;2023-03-01T01:58:23;9.50;;;7.97;;
12900;SDS011;6518;50.930;5.344;2023-03-01T02:00:51;9.43;;;7.77;;
12900;SDS011;6518;50.930;5.344;2023-03-01T02:03:20;10.63;;;8.10;;
12900;SDS011;6518;50.930;5.344;2023-03-01T02:05:55;11.73;;;8.43;;
12900;SDS011;6518;50.930;5.344;2023-03-01T02:08:27;10.90;;;8.40;;
12900;SDS011;6518;50.930;5.344;2023-03-01T02:10:57;11.63;;;7.97;;
12900;SDS011;6518;50.930;5.344;2023-03-01T02:13:25;9.63;;;7.77;;
12900;SDS011;6518;50.930;5.344;2023-03-01T02:15:52;12.53;;;8.17;;
12900;SDS011;6518;50.930;5.344;2023-03-01T02:18:20;11.50;;;8.50;;
12900;SDS011;6518;50.930;5.344;2023-03-01T02:20:51;12.33;;;8.50;;
12900;SDS011;6518;50.930;5.344;2023-03-01T02:23:28;11.70;;;8.33;;
12900;SDS011;6518;50.930;5.344;2023-03-01T02:25:57;11.37;;;9.07;;
12900;SDS011;6518;50.930;5.344;2023-03-01T02:28:31;11.87;;;8.17;;
12900;SDS011;6518;50.930;5.344;2023-03-01T02:31:00;9.83;;;7.80;;
12900;SDS011;6518;50.930;5.344;2023-03-01T02:33:45;10.17;;;7.67;;
12900;SDS011;6518;50.930;5.344;2023-03-01T02:36:15;11.83;;;9.00;;
12900;SDS011;6518;50.930;5.344;2023-03-01T02:38:45;10.77;;;9.00;;
12900;SDS011;6518;50.930;5.344;2023-03-01T02:41:15;10.13;;;8.27;;
12900;SDS011;6518;50.930;5.344;2023-03-01T02:43:45;11.10;;;8.50;;
12900;SDS011;6518;50.930;5.344;2023-03-01T02:46:16;9.47;;;8.43;;
12900;SDS011;6518;50.930;5.344;2023-03-01T02:48:45;13.47;;;8.03;;
12900;SDS011;6518;50.930;5.344;2023-03-01T02:51:18;11.67;;;8.57;;
12900;SDS011;6518;50.930;5.344;2023-03-01T02:53:56;10.67;;;8.50;;
12900;SDS011;6518;50.930;5.344;2023-03-01T02:56:33;12.13;;;9.13;;
12900;SDS011;6518;50.930;5.344;2023-03-01T02:59:02;14.53;;;9.07;;
12900;SDS011;6518;50.930;5.344;2023-03-01T03:01:29;11.97;;;9.00;;
12900;SDS011;6518;50.930;5.344;2023-03-01T03:04:02;12.17;;;8.70;;
12900;SDS011;6518;50.930;5.344;2023-03-01T03:06:30;10.87;;;8.87;;
12900;SDS011;6518;50.930;5.344;2023-03-01T03:08:57;11.97;;;8.90;;
12900;SDS011;6518;50.930;5.344;2023-03-01T03:11:23;11.90;;;8.90;;
12900;SDS011;6518;50.930;5.344;2023-03-01T03:13:50;11.30;;;8.70;;
12900;SDS011;6518;50.930;5.344;2023-03-01T03:16:19;12.93;;;8.73;;
12900;SDS011;6518;50.930;5.344;2023-03-01T03:18:46;10.90;;;9.07;;
12900;SDS011;6518;50.930;5.344;2023-03-01T03:21:13;10.47;;;8.40;;
12900;SDS011;6518;50.930;5.344;2023-03-01T03:23:41;11.80;;;9.30;;
12900;SDS011;6518;50.930;5.344;2023-03-01T03:26:08;16.77;;;9.77;;
12900;SDS011;6518;50.930;5.344;2023-03-01T03:28:40;10.93;;;9.23;;
12900;SDS011;6518;50.930;5.344;2023-03-01T03:31:06;10.20;;;8.80;;
12900;SDS011;6518;50.930;5.344;2023-03-01T03:33:35;12.70;;;8.53;;
12900;SDS011;6518;50.930;5.344;2023-03-01T03:36:02;14.47;;;9.23;;
12900;SDS011;6518;50.930;5.344;2023-03-01T03:38:29;11.70;;;8.93;;
12900;SDS011;6518;50.930;5.344;2023-03-01T03:41:00;13.23;;;9.57;;
12900;SDS011;6518;50.930;5.344;2023-03-01T03:43:28;11.00;;;8.67;;
12900;SDS011;6518;50.930;5.344;2023-03-01T03:45:56;10.87;;;9.23;;
12900;SDS011;6518;50.930;5.344;2023-03-01T03:48:23;12.63;;;9.47;;
12900;SDS011;6518;50.930;5.344;2023-03-01T03:50:53;12.23;;;9.23;;
12900;SDS011;6518;50.930;5.344;2023-03-01T03:53:21;10.60;;;8.90;;
12900;SDS011;6518;50.930;5.344;2023-03-01T03:55:49;13.07;;;10.00;;
12900;SDS011;6518;50.930;5.344;2023-03-01T03:58:17;13.47;;;9.53;;
12900;SDS011;6518;50.930;5.344;2023-03-01T04:00:46;11.87;;;9.27;;
12900;SDS011;6518;50.930;5.344;2023-03-01T04:03:14;11.70;;;9.70;;
12900;SDS011;6518;50.930;5.344;2023-03-01T04:05:42;11.43;;;10.03;;
12900;SDS011;6518;50.930;5.344;2023-03-01T04:08:10;13.57;;;9.70;;
12900;SDS011;6518;50.930;5.344;2023-03-01T04:10:38;13.03;;;10.23;;
12900;SDS011;6518;50.930;5.344;2023-03-01T04:13:08;12.73;;;10.13;;
12900;SDS011;6518;50.930;5.344;2023-03-01T04:15:37;12.87;;;9.23;;
12900;SDS011;6518;50.930;5.344;2023-03-01T04:18:05;12.10;;;9.83;;
12900;SDS011;6518;50.930;5.344;2023-03-01T04:20:33;11.63;;;9.63;;
12900;SDS011;6518;50.930;5.344;2023-03-01T04:23:02;10.53;;;9.20;;
12900;SDS011;6518;50.930;5.344;2023-03-01T04:25:37;10.50;;;9.30;;
12900;SDS011;6518;50.930;5.344;2023-03-01T04:28:04;13.30;;;9.77;;
12900;SDS011;6518;50.930;5.344;2023-03-01T04:30:31;13.10;;;9.93;;
12900;SDS011;6518;50.930;5.344;2023-03-01T04:33:00;17.40;;;9.77;;
12900;SDS011;6518;50.930;5.344;2023-03-01T04:35:28;14.43;;;10.30;;
12900;SDS011;6518;50.930;5.344;2023-03-01T04:37:55;12.80;;;10.00;;
12900;SDS011;6518;50.930;5.344;2023-03-01T04:40:22;15.60;;;11.63;;
12900;SDS011;6518;50.930;5.344;2023-03-01T04:42:50;12.67;;;10.20;;
12900;SDS011;6518;50.930;5.344;2023-03-01T04:45:17;12.83;;;10.27;;
12900;SDS011;6518;50.930;5.344;2023-03-01T04:47:45;13.47;;;10.30;;
12900;SDS011;6518;50.930;5.344;2023-03-01T04:50:13;12.53;;;10.27;;
12900;SDS011;6518;50.930;5.344;2023-03-01T04:52:42;13.50;;;10.27;;
12900;SDS011;6518;50.930;5.344;2023-03-01T04:55:10;13.70;;;11.07;;
12900;SDS011;6518;50.930;5.344;2023-03-01T04:57:37;13.47;;;10.73;;
12900;SDS011;6518;50.930;5.344;2023-03-01T05:00:06;13.17;;;10.17;;
12900;SDS011;6518;50.930;5.344;2023-03-01T05:02:45;14.60;;;10.97;;
12900;SDS011;6518;50.930;5.344;2023-03-01T05:05:18;16.43;;;10.17;;
12900;SDS011;6518;50.930;5.344;2023-03-01T05:07:50;13.03;;;10.67;;
12900;SDS011;6518;50.930;5.344;2023-03-01T05:10:18;18.33;;;11.33;;
12900;SDS011;6518;50.930;5.344;2023-03-01T05:12:45;15.53;;;11.10;;
12900;SDS011;6518;50.930;5.344;2023-03-01T05:15:13;14.50;;;10.30;;
12900;SDS011;6518;50.930;5.344;2023-03-01T05:17:40;12.83;;;10.37;;
12900;SDS011;6518;50.930;5.344;2023-03-01T05:20:08;14.67;;;10.63;;
12900;SDS011;6518;50.930;5.344;2023-03-01T05:22:36;14.07;;;10.43;;
12900;SDS011;6518;50.930;5.344;2023-03-01T05:25:03;13.30;;;10.57;;
12900;SDS011;6518;50.930;5.344;2023-03-01T05:27:30;15.10;;;10.17;;
12900;SDS011;6518;50.930;5.344;2023-03-01T05:29:57;15.30;;;10.17;;
12900;SDS011;6518;50.930;5.344;2023-03-01T05:32:25;15.50;;;10.60;;
12900;SDS011;6518;50.930;5.344;2023-03-01T05:34:52;17.47;;;11.13;;
12900;SDS011;6518;50.930;5.344;2023-03-01T05:37:20;11.43;;;10.20;;
12900;SDS011;6518;50.930;5.344;2023-03-01T05:39:46;14.30;;;10.27;;
12900;SDS011;6518;50.930;5.344;2023-03-01T05:42:15;16.77;;;10.97;;
12900;SDS011;6518;50.930;5.344;2023-03-01T05:44:42;13.57;;;10.27;;
12900;SDS011;6518;50.930;5.344;2023-03-01T05:47:09;14.40;;;10.33;;
12900;SDS011;6518;50.930;5.344;2023-03-01T05:49:37;15.60;;;10.53;;
12900;SDS011;6518;50.930;5.344;2023-03-01T05:52:04;12.30;;;9.93;;
12900;SDS011;6518;50.930;5.344;2023-03-01T05:54:31;15.13;;;10.80;;
12900;SDS011;6518;50.930;5.344;2023-03-01T05:56:58;16.23;;;11.73;;
12900;SDS011;6518;50.930;5.344;2023-03-01T05:59:25;17.43;;;12.00;;
12900;SDS011;6518;50.930;5.344;2023-03-01T06:01:51;14.63;;;10.93;;
12900;SDS011;6518;50.930;5.344;2023-03-01T06:04:18;13.97;;;10.50;;
12900;SDS011;6518;50.930;5.344;2023-03-01T06:06:47;15.10;;;10.57;;
12900;SDS011;6518;50.930;5.344;2023-03-01T06:09:14;12.70;;;10.30;;
12900;SDS011;6518;50.930;5.344;2023-03-01T06:11:41;17.33;;;10.40;;
12900;SDS011;6518;50.930;5.344;2023-03-01T06:14:07;16.00;;;10.93;;
12900;SDS011;6518;50.930;5.344;2023-03-01T06:16:35;14.00;;;10.37;;
12900;SDS011;6518;50.930;5.344;2023-03-01T06:19:02;13.80;;;10.37;;
12900;SDS011;6518;50.930;5.344;2023-03-01T06:21:29;14.17;;;10.43;;
12900;SDS011;6518;50.930;5.344;2023-03-01T06:23:57;14.97;;;11.23;;
12900;SDS011;6518;50.930;5.344;2023-03-01T06:26:24;17.93;;;11.70;;
12900;SDS011;6518;50.930;5.344;2023-03-01T06:28:51;16.90;;;11.47;;
12900;SDS011;6518;50.930;5.344;2023-03-01T06:31:17;15.80;;;11.13;;
12900;SDS011;6518;50.930;5.344;2023-03-01T06:33:44;17.57;;;11.23;;
12900;SDS011;6518;50.930;5.344;2023-03-01T06:36:11;15.23;;;10.70;;
12900;SDS011;6518;50.930;5.344;2023-03-01T06:38:38;16.23;;;10.33;;
12900;SDS011;6518;50.930;5.344;2023-03-01T06:41:07;15.13;;;11.33;;
12900;SDS011;6518;50.930;5.344;2023-03-01T06:43:34;13.13;;;10.90;;
12900;SDS011;6518;50.930;5.344;2023-03-01T06:46:03;16.07;;;11.10;;
12900;SDS011;6518;50.930;5.344;2023-03-01T06:48:31;16.40;;;11.77;;
12900;SDS011;6518;50.930;5.344;2023-03-01T06:50:58;18.43;;;11.70;;
12900;SDS011;6518;50.930;5.344;2023-03-01T06:53:25;13.97;;;10.83;;
12900;SDS011;6518;50.930;5.344;2023-03-01T06:55:53;15.53;;;10.73;;
12900;SDS011;6518;50.930;5.344;2023-03-01T06:58:22;16.90;;;11.00;;
12900;SDS011;6518;50.930;5.344;2023-03-01T07:00:52;15.93;;;11.20;;
12900;SDS011;6518;50.930;5.344;2023-03-01T07:03:19;14.77;;;11.90;;
12900;SDS011;6518;50.930;5.344;2023-03-01T07:05:48;16.67;;;10.93;;
12900;SDS011;6518;50.930;5.344;2023-03-01T07:08:16;17.27;;;11.30;;
12900;SDS011;6518;50.930;5.344;2023-03-01T07:10:46;19.23;;;11.10;;
12900;SDS011;6518;50.930;5.344;2023-03-01T07:13:13;16.87;;;11.73;;
12900;SDS011;6518;50.930;5.344;2023-03-01T07:15:41;18.37;;;11.77;;
12900;SDS011;6518;50.930;5.344;2023-03-01T07:18:08;14.87;;;10.73;;
12900;SDS011;6518;50.930;5.344;2023-03-01T07:20:35;16.73;;;10.70;;
12900;SDS011;6518;50.930;5.344;2023-03-01T07:23:02;20.17;;;11.93;;
12900;SDS011;6518;50.930;5.344;2023-03-01T07:25:28;14.43;;;11.23;;
12900;SDS011;6518;50.930;5.344;2023-03-01T07:27:55;15.67;;;11.17;;
12900;SDS011;6518;50.930;5.344;2023-03-01T07:30:22;16.40;;;11.90;;
12900;SDS011;6518;50.930;5.344;2023-03-01T07:32:52;19.07;;;12.33;;
12900;SDS011;6518;50.930;5.344;2023-03-01T07:35:20;14.73;;;11.80;;
12900;SDS011;6518;50.930;5.344;2023-03-01T07:37:47;17.60;;;11.40;;
12900;SDS011;6518;50.930;5.344;2023-03-01T07:40:14;16.40;;;11.07;;
12900;SDS011;6518;50.930;5.344;2023-03-01T07:42:41;15.17;;;11.10;;
12900;SDS011;6518;50.930;5.344;2023-03-01T07:45:09;18.60;;;11.77;;
12900;SDS011;6518;50.930;5.344;2023-03-01T07:47:36;17.03;;;12.27;;
12900;SDS011;6518;50.930;5.344;2023-03-01T07:50:05;15.67;;;11.53;;
12900;SDS011;6518;50.930;5.344;2023-03-01T07:52:35;20.00;;;11.77;;
12900;SDS011;6518;50.930;5.344;2023-03-01T07:55:02;16.13;;;11.60;;
12900;SDS011;6518;50.930;5.344;2023-03-01T07:57:29;15.50;;;11.50;;
12900;SDS011;6518;50.930;5.344;2023-03-01T07:59:56;16.80;;;11.67;;
12900;SDS011;6518;50.930;5.344;2023-03-01T08:02:23;17.33;;;11.90;;
12900;SDS011;6518;50.930;5.344;2023-03-01T08:04:50;18.10;;;12.00;;
12900;SDS011;6518;50.930;5.344;2023-03-01T08:07:18;16.47;;;11.70;;
12900;SDS011;6518;50.930;5.344;2023-03-01T08:09:44;16.67;;;11.63;;
12900;SDS011;6518;50.930;5.344;2023-03-01T08:12:11;15.50;;;11.37;;
12900;SDS011;6518;50.930;5.344;2023-03-01T08:14:38;15.97;;;10.87;;
12900;SDS011;6518;50.930;5.344;2023-03-01T08:17:05;20.27;;;11.87;;
12900;SDS011;6518;50.930;5.344;2023-03-01T08:19:32;16.63;;;11.40;;
12900;SDS011;6518;50.930;5.344;2023-03-01T08:21:59;17.03;;;11.63;;
12900;SDS011;6518;50.930;5.344;2023-03-01T08:24:28;13.93;;;11.03;;
12900;SDS011;6518;50.930;5.344;2023-03-01T08:26:55;15.27;;;11.47;;
12900;SDS011;6518;50.930;5.344;2023-03-01T08:29:22;15.73;;;10.93;;
12900;SDS011;6518;50.930;5.344;2023-03-01T08:31:49;14.30;;;10.77;;
12900;SDS011;6518;50.930;5.344;2023-03-01T08:34:17;15.33;;;10.87;;
12900;SDS011;6518;50.930;5.344;2023-03-01T08:36:45;17.07;;;12.20;;
12900;SDS011;6518;50.930;5.344;2023-03-01T08:39:13;16.23;;;12.07;;
12900;SDS011;6518;50.930;5.344;2023-03-01T08:41:43;16.23;;;11.93;;
12900;SDS011;6518;50.930;5.344;2023-03-01T08:44:11;16.33;;;10.83;;
12900;SDS011;6518;50.930;5.344;2023-03-01T08:46:39;17.10;;;10.43;;
12900;SDS011;6518;50.930;5.344;2023-03-01T08:49:07;14.63;;;11.17;;
12900;SDS011;6518;50.930;5.344;2023-03-01T08:51:37;15.33;;;10.37;;
12900;SDS011;6518;50.930;5.344;2023-03-01T08:54:04;14.47;;;11.17;;
12900;SDS011;6518;50.930;5.344;2023-03-01T08:56:32;15.00;;;10.33;;
12900;SDS011;6518;50.930;5.344;2023-03-01T08:59:00;14.93;;;11.20;;
12900;SDS011;6518;50.930;5.344;2023-03-01T09:01:27;14.73;;;10.97;;
12900;SDS011;6518;50.930;5.344;2023-03-01T09:03:54;14.93;;;11.10;;
12900;SDS011;6518;50.930;5.344;2023-03-01T09:06:22;15.47;;;11.53;;
12900;SDS011;6518;50.930;5.344;2023-03-01T09:08:49;15.13;;;10.90;;
12900;SDS011;6518;50.930;5.344;2023-03-01T09:11:17;16.33;;;10.37;;
12900;SDS011;6518;50.930;5.344;2023-03-01T09:13:45;17.93;;;11.20;;
12900;SDS011;6518;50.930;5.344;2023-03-01T09:16:15;18.60;;;11.10;;
12900;SDS011;6518;50.930;5.344;2023-03-01T09:18:44;15.23;;;10.97;;
12900;SDS011;6518;50.930;5.344;2023-03-01T09:21:12;15.00;;;11.63;;
12900;SDS011;6518;50.930;5.344;2023-03-01T09:23:40;13.53;;;10.80;;
12900;SDS011;6518;50.930;5.344;2023-03-01T09:26:09;16.57;;;11.27;;
12900;SDS011;6518;50.930;5.344;2023-03-01T09:28:37;15.57;;;10.60;;
12900;SDS011;6518;50.930;5.344;2023-03-01T09:31:05;13.87;;;11.03;;
12900;SDS011;6518;50.930;5.344;2023-03-01T09:33:34;14.20;;;11.00;;
12900;SDS011;6518;50.930;5.344;2023-03-01T09:36:01;12.53;;;10.30;;
12900;SDS011;6518;50.930;5.344;2023-03-01T09:38:29;14.47;;;10.77;;
12900;SDS011;6518;50.930;5.344;2023-03-01T09:40:56;17.50;;;10.50;;
12900;SDS011;6518;50.930;5.344;2023-03-01T09:43:25;16.20;;;11.13;;
12900;SDS011;6518;50.930;5.344;2023-03-01T09:45:58;11.37;;;9.30;;
12900;SDS011;6518;50.930;5.344;2023-03-01T09:48:30;16.60;;;11.40;;
12900;SDS011;6518;50.930;5.344;2023-03-01T09:51:08;18.57;;;12.60;;
12900;SDS011;6518;50.930;5.344;2023-03-01T09:53:43;17.60;;;11.70;;
12900;SDS011;6518;50.930;5.344;2023-03-01T09:56:12;12.57;;;10.50;;
12900;SDS011;6518;50.930;5.344;2023-03-01T09:58:47;16.43;;;10.50;;
12900;SDS011;6518;50.930;5.344;2023-03-01T10:01:29;14.47;;;10.20;;
12900;SDS011;6518;50.930;5.344;2023-03-01T10:04:04;15.90;;;10.83;;
12900;SDS011;6518;50.930;5.344;2023-03-01T10:06:39;15.90;;;10.87;;
12900;SDS011;6518;50.930;5.344;2023-03-01T10:09:12;13.53;;;10.80;;
12900;SDS011;6518;50.930;5.344;2023-03-01T10:11:42;14.77;;;10.43;;
12900;SDS011;6518;50.930;5.344;2023-03-01T10:14:15;16.90;;;10.13;;
12900;SDS011;6518;50.930;5.344;2023-03-01T10:16:54;18.40;;;10.80;;
12900;SDS011;6518;50.930;5.344;2023-03-01T10:19:30;15.10;;;10.93;;
12900;SDS011;6518;50.930;5.344;2023-03-01T10:22:01;20.07;;;11.33;;
12900;SDS011;6518;50.930;5.344;2023-03-01T10:24:31;17.77;;;12.00;;
12900;SDS011;6518;50.930;5.344;2023-03-01T10:27:03;15.97;;;10.90;;
12900;SDS011;6518;50.930;5.344;2023-03-01T10:29:34;14.50;;;10.93;;
12900;SDS011;6518;50.930;5.344;2023-03-01T10:32:08;13.30;;;10.77;;
12900;SDS011;6518;50.930;5.344;2023-03-01T10:34:38;14.37;;;11.17;;
12900;SDS011;6518;50.930;5.344;2023-03-01T10:37:14;14.67;;;10.90;;
12900;SDS011;6518;50.930;5.344;2023-03-01T10:39:56;16.97;;;11.50;;
12900;SDS011;6518;50.930;5.344;2023-03-01T10:42:27;14.70;;;11.03;;
12900;SDS011;6518;50.930;5.344;2023-03-01T10:44:56;16.70;;;11.67;;
12900;SDS011;6518;50.930;5.344;2023-03-01T10:47:24;18.27;;;11.20;;
12900;SDS011;6518;50.930;5.344;2023-03-01T10:49:57;16.83;;;11.13;;
12900;SDS011;6518;50.930;5.344;2023-03-01T10:52:31;15.50;;;11.90;;
12900;SDS011;6518;50.930;5.344;2023-03-01T10:55:00;14.57;;;11.60;;
12900;SDS011;6518;50.930;5.344;2023-03-01T10:57:32;17.20;;;11.53;;
12900;SDS011;6518;50.930;5.344;2023-03-01T11:00:19;18.27;;;11.60;;
12900;SDS011;6518;50.930;5.344;2023-03-01T11:02:49;14.40;;;11.10;;
12900;SDS011;6518;50.930;5.344;2023-03-01T11:05:23;14.87;;;10.80;;
12900;SDS011;6518;50.930;5.344;2023-03-01T11:07:51;18.30;;;11.47;;
12900;SDS011;6518;50.930;5.344;2023-03-01T11:10:21;15.57;;;10.37;;
12900;SDS011;6518;50.930;5.344;2023-03-01T11:12:50;14.70;;;11.97;;
12900;SDS011;6518;50.930;5.344;2023-03-01T11:15:22;17.87;;;12.20;;
12900;SDS011;6518;50.930;5.344;2023-03-01T11:17:52;16.03;;;11.63;;
12900;SDS011;6518;50.930;5.344;2023-03-01T11:20:25;15.00;;;11.33;;
12900;SDS011;6518;50.930;5.344;2023-03-01T11:22:58;15.30;;;11.60;;
12900;SDS011;6518;50.930;5.344;2023-03-01T11:25:30;13.87;;;10.67;;
12900;SDS011;6518;50.930;5.344;2023-03-01T11:28:01;15.10;;;10.33;;
12900;SDS011;6518;50.930;5.344;2023-03-01T11:30:32;20.50;;;11.13;;
12900;SDS011;6518;50.930;5.344;2023-03-01T11:33:05;17.93;;;12.13;;
12900;SDS011;6518;50.930;5.344;2023-03-01T11:35:45;17.50;;;10.30;;
12900;SDS011;6518;50.930;5.344;2023-03-01T11:38:17;16.90;;;11.90;;
12900;SDS011;6518;50.930;5.344;2023-03-01T11:40:49;14.10;;;10.23;;
12900;SDS011;6518;50.930;5.344;2023-03-01T11:43:26;14.10;;;10.70;;
12900;SDS011;6518;50.930;5.344;2023-03-01T11:46:07;13.20;;;10.10;;
12900;SDS011;6518;50.930;5.344;2023-03-01T11:49:22;14.90;;;10.70;;
12900;SDS011;6518;50.930;5.344;2023-03-01T11:52:20;13.70;;;10.00;;
12900;SDS011;6518;50.930;5.344;2023-03-01T11:54:57;17.90;;;10.23;;
12900;SDS011;6518;50.930;5.344;2023-03-01T11:57:41;14.57;;;10.73;;
12900;SDS011;6518;50.930;5.344;2023-03-01T12:00:19;14.13;;;10.60;;
12900;SDS011;6518;50.930;5.344;2023-03-01T12:03:17;15.10;;;10.23;;
12900;SDS011;6518;50.930;5.344;2023-03-01T12:06:24;15.40;;;10.90;;
12900;SDS011;6518;50.930;5.344;2023-03-01T12:09:19;12.87;;;10.00;;
12900;SDS011;6518;50.930;5.344;2023-03-01T12:15:11;12.00;;;8.83;;
12900;SDS011;6518;50.930;5.344;2023-03-01T12:18:09;13.33;;;9.70;;
12900;SDS011;6518;50.930;5.344;2023-03-01T12:20:58;14.80;;;10.30;;
12900;SDS011;6518;50.930;5.344;2023-03-01T12:23:42;14.27;;;10.13;;
12900;SDS011;6518;50.930;5.344;2023-03-01T12:26:23;13.73;;;10.47;;
12900;SDS011;6518;50.930;5.344;2023-03-01T12:34:51;16.80;;;10.87;;
12900;SDS011;6518;50.930;5.344;2023-03-01T12:37:29;15.50;;;10.37;;
12900;SDS011;6518;50.930;5.344;2023-03-01T12:40:19;13.70;;;10.00;;
12900;SDS011;6518;50.930;5.344;2023-03-01T12:43:04;14.20;;;10.47;;
12900;SDS011;6518;50.930;5.344;2023-03-01T12:45:50;14.20;;;10.80;;
12900;SDS011;6518;50.930;5.344;2023-03-01T12:48:32;13.80;;;10.60;;
12900;SDS011;6518;50.930;5.344;2023-03-01T12:51:06;13.93;;;10.07;;
12900;SDS011;6518;50.930;5.344;2023-03-01T12:53:38;13.00;;;10.10;;
12900;SDS011;6518;50.930;5.344;2023-03-01T12:56:08;14.50;;;10.07;;
12900;SDS011;6518;50.930;5.344;2023-03-01T12:58:41;12.03;;;10.07;;
12900;SDS011;6518;50.930;5.344;2023-03-01T13:01:16;13.93;;;10.37;;
12900;SDS011;6518;50.930;5.344;2023-03-01T13:03:57;13.50;;;10.13;;
12900;SDS011;6518;50.930;5.344;2023-03-01T13:06:53;14.63;;;10.07;;
12900;SDS011;6518;50.930;5.344;2023-03-01T13:09:30;13.50;;;10.10;;
12900;SDS011;6518;50.930;5.344;2023-03-01T13:12:04;13.60;;;10.50;;
12900;SDS011;6518;50.930;5.344;2023-03-01T13:15:16;13.00;;;10.17;;
12900;SDS011;6518;50.930;5.344;2023-03-01T13:17:52;16.70;;;9.10;;
12900;SDS011;6518;50.930;5.344;2023-03-01T13:20:20;11.70;;;9.60;;
12900;SDS011;6518;50.930;5.344;2023-03-01T13:22:59;13.93;;;10.23;;
12900;SDS011;6518;50.930;5.344;2023-03-01T13:25:28;14.13;;;9.40;;
12900;SDS011;6518;50.930;5.344;2023-03-01T13:28:35;11.63;;;9.07;;
12900;SDS011;6518;50.930;5.344;2023-03-01T13:31:55;13.90;;;9.53;;
12900;SDS011;6518;50.930;5.344;2023-03-01T13:34:42;11.97;;;9.23;;
12900;SDS011;6518;50.930;5.344;2023-03-01T13:37:18;11.57;;;9.30;;
12900;SDS011;6518;50.930;5.344;2023-03-01T13:39:47;13.47;;;7.87;;
12900;SDS011;6518;50.930;5.344;2023-03-01T13:42:34;11.20;;;9.43;;
12900;SDS011;6518;50.930;5.344;2023-03-01T13:45:16;14.63;;;9.47;;
12900;SDS011;6518;50.930;5.344;2023-03-01T13:47:52;12.83;;;9.00;;
12900;SDS011;6518;50.930;5.344;2023-03-01T13:50:24;11.87;;;9.67;;
12900;SDS011;6518;50.930;5.344;2023-03-01T13:52:53;10.60;;;8.43;;
12900;SDS011;6518;50.930;5.344;2023-03-01T13:55:24;14.63;;;9.47;;
12900;SDS011;6518;50.930;5.344;2023-03-01T13:57:56;14.17;;;10.43;;
12900;SDS011;6518;50.930;5.344;2023-03-01T14:00:26;21.13;;;10.63;;
12900;SDS011;6518;50.930;5.344;2023-03-01T14:03:09;14.57;;;10.03;;
12900;SDS011;6518;50.930;5.344;2023-03-01T14:05:38;11.53;;;8.67;;
12900;SDS011;6518;50.930;5.344;2023-03-01T14:08:17;13.30;;;9.27;;
12900;SDS011;6518;50.930;5.344;2023-03-01T14:10:50;14.97;;;10.27;;
12900;SDS011;6518;50.930;5.344;2023-03-01T14:13:48;12.93;;;9.57;;
12900;SDS011;6518;50.930;5.344;2023-03-01T14:16:35;12.10;;;9.20;;
12900;SDS011;6518;50.930;5.344;2023-03-01T14:19:15;13.53;;;8.30;;
12900;SDS011;6518;50.930;5.344;2023-03-01T14:21:45;12.67;;;8.60;;
12900;SDS011;6518;50.930;5.344;2023-03-01T14:24:18;14.47;;;9.43;;
12900;SDS011;6518;50.930;5.344;2023-03-01T14:26:47;13.10;;;8.90;;
12900;SDS011;6518;50.930;5.344;2023-03-01T14:29:32;10.93;;;8.50;;
12900;SDS011;6518;50.930;5.344;2023-03-01T14:32:11;13.43;;;9.03;;
12900;SDS011;6518;50.930;5.344;2023-03-01T14:34:45;16.40;;;9.00;;
12900;SDS011;6518;50.930;5.344;2023-03-01T14:37:21;11.53;;;9.03;;
12900;SDS011;6518;50.930;5.344;2023-03-01T14:39:50;12.60;;;9.20;;
12900;SDS011;6518;50.930;5.344;2023-03-01T14:42:18;12.93;;;8.90;;
12900;SDS011;6518;50.930;5.344;2023-03-01T14:44:47;13.17;;;9.30;;
12900;SDS011;6518;50.930;5.344;2023-03-01T14:47:19;13.70;;;8.93;;
12900;SDS011;6518;50.930;5.344;2023-03-01T14:49:53;9.90;;;8.17;;
12900;SDS011;6518;50.930;5.344;2023-03-01T14:52:25;12.43;;;9.47;;
12900;SDS011;6518;50.930;5.344;2023-03-01T14:54:59;11.60;;;8.57;;
12900;SDS011;6518;50.930;5.344;2023-03-01T14:57:29;12.37;;;8.57;;
12900;SDS011;6518;50.930;5.344;2023-03-01T14:59:57;11.83;;;8.17;;
12900;SDS011;6518;50.930;5.344;2023-03-01T15:02:29;10.43;;;7.73;;
12900;SDS011;6518;50.930;5.344;2023-03-01T15:04:59;11.67;;;7.93;;
12900;SDS011;6518;50.930;5.344;2023-03-01T15:07:30;15.30;;;8.10;;
12900;SDS011;6518;50.930;5.344;2023-03-01T15:09:59;14.07;;;8.50;;
12900;SDS011;6518;50.930;5.344;2023-03-01T15:12:38;12.17;;;8.63;;
12900;SDS011;6518;50.930;5.344;2023-03-01T15:15:19;11.60;;;7.70;;